Time;durP1;ratioP1;P1;durP2;ratioP2;P2;SDS_P1;SDS_P2;PMS_P1;PMS_P2;Temp;Humidity;BMP_temperature;BMP_pressure;BME280_temperature;BME280_humidity;BME280_pressure;Samples;Min_cycle;Max_cycle;Signal;HPM_P1;HPM_P2
2022/11/19 00:01:01;;;;;;;;;2.00;2.00;;;;;20.27;51.90;100467.65;105734;1288;18398;-65
2022/11/19 00:03:28;;;;;;;;;4.00;4.00;;;;;20.26;51.73;100461.38;105756;1297;19536;-65
2022/11/19 00:05:56;;;;;;;;;5.00;4.00;;;;;20.26;51.63;100462.58;105724;1279;19314;-65
2022/11/19 00:08:23;;;;;;;;;5.00;4.00;;;;;20.26;51.58;100456.64;105689;1295;18358;-65
2022/11/19 00:10:50;;;;;;;;;2.00;2.00;;;;;20.26;51.77;100458.10;105603;1298;18624;-65
2022/11/19 00:13:18;;;;;;;;;4.00;4.00;;;;;20.27;51.76;100453.88;105717;1281;23875;-65
2022/11/19 00:15:45;;;;;;;;;4.00;4.00;;;;;20.25;51.55;100455.66;105720;1294;19608;-65
2022/11/19 00:18:13;;;;;;;;;5.00;5.00;;;;;20.26;51.72;100458.89;105523;1297;313783;-65
2022/11/19 00:20:41;;;;;;;;;4.50;4.50;;;;;20.25;51.53;100469.84;105729;1295;20153;-65
2022/11/19 00:23:09;;;;;;;;;4.50;4.50;;;;;20.24;51.52;100471.76;105709;1289;20632;-66
2022/11/19 00:25:36;;;;;;;;;4.50;4.50;;;;;20.26;51.59;100475.38;105710;1278;21241;-66
2022/11/19 00:28:04;;;;;;;;;4.00;4.00;;;;;20.25;51.47;100478.02;105732;1271;20800;-66
2022/11/19 00:30:31;;;;;;;;;4.00;4.00;;;;;20.26;51.39;100485.77;105713;1300;18470;-66
2022/11/19 00:32:59;;;;;;;;;4.00;4.00;;;;;20.24;51.54;100479.79;105744;1297;20493;-66
2022/11/19 00:35:26;;;;;;;;;4.00;4.00;;;;;20.25;51.60;100480.40;105650;1297;19447;-66
2022/11/19 00:37:54;;;;;;;;;2.00;2.00;;;;;20.25;51.35;100481.86;105693;1295;18425;-65
2022/11/19 00:40:22;;;;;;;;;4.00;4.00;;;;;20.23;51.62;100483.85;105628;1274;18577;-67
2022/11/19 00:45:30;;;;;;;;;4.00;4.00;;;;;20.23;51.44;100484.56;105689;1282;19697;-64
2022/11/19 00:48:01;;;;;;;;;4.00;4.00;;;;;20.24;51.42;100480.34;105695;1288;22282;-65
2022/11/19 00:50:28;;;;;;;;;4.00;4.00;;;;;20.24;51.55;100479.29;105729;1297;19343;-64
2022/11/19 00:52:55;;;;;;;;;4.00;4.00;;;;;20.23;51.31;100481.13;105742;1272;18239;-64
2022/11/19 00:55:23;;;;;;;;;4.00;4.00;;;;;20.21;51.41;100479.73;105714;1288;18937;-66
2022/11/19 00:57:50;;;;;;;;;5.00;5.00;;;;;20.22;51.36;100481.09;105693;1297;19371;-65
2022/11/19 01:00:18;;;;;;;;;4.00;4.00;;;;;20.22;51.43;100482.95;105687;1271;19585;-64
2022/11/19 01:02:45;;;;;;;;;3.00;3.00;;;;;20.21;51.25;100485.36;105700;1271;20236;-64
2022/11/19 01:05:13;;;;;;;;;4.00;4.00;;;;;20.22;51.29;100487.13;105703;1297;19480;-65
2022/11/19 01:07:41;;;;;;;;;4.00;2.00;;;;;20.22;51.57;100488.38;105675;1295;20815;-66
2022/11/19 01:10:08;;;;;;;;;4.33;2.00;;;;;20.22;51.40;100486.40;105729;1295;22440;-65
2022/11/19 01:13:33;;;;;;;;;4.00;4.00;;;;;20.22;51.43;100482.06;105748;1297;20685;-66
2022/11/19 01:15:23;;;;;;;;;4.00;4.00;;;;;20.20;51.26;100475.86;105720;1286;19635;-65
2022/11/19 01:17:50;;;;;;;;;3.00;3.00;;;;;20.21;51.20;100480.66;105732;1279;18533;-65
2022/11/19 01:20:18;;;;;;;;;4.00;2.00;;;;;20.21;51.26;100479.09;105671;1279;24067;-65
2022/11/19 01:22:45;;;;;;;;;4.00;4.00;;;;;20.21;51.33;100478.69;105714;1279;18431;-65
2022/11/19 01:25:13;;;;;;;;;4.50;4.00;;;;;20.21;51.35;100482.66;105699;1293;18611;-64
2022/11/19 01:27:40;;;;;;;;;4.00;2.00;;;;;20.20;51.18;100477.19;105756;1297;19849;-64
2022/11/19 01:30:08;;;;;;;;;4.50;3.00;;;;;20.19;51.06;100479.95;105701;1297;19007;-63
2022/11/19 01:32:35;;;;;;;;;4.00;4.00;;;;;20.20;51.19;100484.95;105703;1289;18687;-66
2022/11/19 01:35:03;;;;;;;;;4.00;4.00;;;;;20.20;51.29;100487.30;105708;1295;20770;-66
2022/11/19 01:37:30;;;;;;;;;7.00;4.00;;;;;20.20;51.05;100485.02;105701;1288;19602;-65
2022/11/19 01:39:58;;;;;;;;;4.00;4.00;;;;;20.19;51.22;100487.77;105708;1286;21588;-65
2022/11/19 01:45:06;;;;;;;;;4.00;4.00;;;;;20.19;51.26;100483.29;105721;1291;19666;-65
2022/11/19 01:47:34;;;;;;;;;5.00;4.00;;;;;20.18;51.06;100479.18;105725;1297;18517;-64
2022/11/19 01:50:02;;;;;;;;;4.00;4.00;;;;;20.18;51.27;100476.67;105674;1272;19478;-64
2022/11/19 01:52:29;;;;;;;;;2.00;2.00;;;;;20.19;51.02;100473.99;105682;1279;20779;-64
2022/11/19 01:54:56;;;;;;;;;;;;;;;20.20;51.01;100470.15;105707;1279;18622;-65
2022/11/19 01:57:24;;;;;;;;;2.00;2.00;;;;;20.20;51.06;100473.04;105730;1279;19965;-65
2022/11/19 01:59:51;;;;;;;;;5.00;4.00;;;;;20.19;51.08;100475.26;105680;1282;19302;-65
2022/11/19 02:02:21;;;;;;;;;4.50;4.00;;;;;20.20;50.95;100480.13;105698;1279;18562;-65
2022/11/19 02:04:50;;;;;;;;;4.00;4.00;;;;;20.19;51.10;100476.59;105701;1297;21535;-64
2022/11/19 02:07:20;;;;;;;;;4.00;4.00;;;;;20.18;50.76;100482.36;105707;1287;22661;-65
2022/11/19 02:09:47;;;;;;;;;2.00;2.00;;;;;20.18;50.94;100480.11;105726;1297;19152;-65
2022/11/19 02:12:15;;;;;;;;;3.00;3.00;;;;;20.18;50.94;100486.09;105719;1279;19311;-65
2022/11/19 02:14:42;;;;;;;;;2.00;2.00;;;;;20.18;50.79;100484.02;105717;1289;18525;-65
2022/11/19 02:17:10;;;;;;;;;2.00;2.00;;;;;20.18;50.89;100483.61;105707;1294;20067;-65
2022/11/19 02:19:37;;;;;;;;;4.00;4.00;;;;;20.17;50.94;100483.15;105717;1271;19329;-65
2022/11/19 02:22:05;;;;;;;;;4.00;4.00;;;;;20.17;51.17;100479.71;105708;1279;18645;-65
2022/11/19 02:24:32;;;;;;;;;4.00;4.00;;;;;20.16;51.03;100480.21;105737;1297;22635;-65
2022/11/19 02:27:00;;;;;;;;;2.00;2.00;;;;;20.16;50.75;100485.41;105721;1279;19311;-66
2022/11/19 02:29:27;;;;;;;;;5.00;4.00;;;;;20.16;50.79;100490.34;105671;1289;18462;-64
2022/11/19 02:31:55;;;;;;;;;2.00;2.00;;;;;20.17;50.83;100487.36;105614;1281;18921;-64
2022/11/19 02:34:22;;;;;;;;;2.00;2.00;;;;;20.16;50.74;100488.02;105668;1295;19355;-65
2022/11/19 02:36:50;;;;;;;;;3.00;3.00;;;;;20.16;50.83;100491.98;105642;1282;22827;-66
2022/11/19 02:39:17;;;;;;;;;;;;;;;20.16;50.85;100495.08;105665;1297;18595;-65
2022/11/19 02:41:45;;;;;;;;;2.00;2.00;;;;;20.16;50.87;100495.98;105678;1289;22104;-65
2022/11/19 02:46:57;;;;;;;;;4.00;4.00;;;;;20.17;50.75;100498.62;105677;1297;18653;-64
2022/11/19 02:49:25;;;;;;;;;2.00;2.00;;;;;20.16;50.72;100496.84;105657;1289;23763;-65
2022/11/19 02:51:52;;;;;;;;;2.00;2.00;;;;;20.16;50.78;100495.08;105691;1288;22198;-65
2022/11/19 02:54:20;;;;;;;;;2.00;2.00;;;;;20.14;50.85;100496.17;105732;1297;18620;-64
2022/11/19 02:56:47;;;;;;;;;4.00;2.00;;;;;20.15;50.84;100493.35;105706;1295;19238;-66
2022/11/19 03:04:45;;;;;;;;;2.00;2.00;;;;;20.15;50.69;100498.65;105673;1279;19464;-64
2022/11/19 03:07:12;;;;;;;;;2.00;2.00;;;;;20.15;50.61;100499.36;105667;1279;18363;-65
2022/11/19 03:09:40;;;;;;;;;4.00;4.00;;;;;20.14;50.79;100501.31;105724;1296;18543;-65
2022/11/19 03:12:07;;;;;;;;;4.00;2.00;;;;;20.14;50.87;100499.30;105652;1274;24347;-66
2022/11/19 03:17:20;;;;;;;;;3.00;2.00;;;;;20.14;50.71;100499.60;105705;1279;18485;-64
2022/11/19 03:19:48;;;;;;;;;2.00;2.00;;;;;20.14;50.82;100497.71;105669;1289;19394;-64
2022/11/19 03:22:15;;;;;;;;;2.00;2.00;;;;;20.13;50.88;100501.77;105703;1295;18296;-64
2022/11/19 03:24:42;;;;;;;;;5.00;4.00;;;;;20.14;50.69;100503.48;105702;1297;21869;-66
2022/11/19 03:27:10;;;;;;;;;4.00;4.00;;;;;20.13;50.64;100507.20;105644;1288;20801;-65
2022/11/19 03:29:37;;;;;;;;;2.00;2.00;;;;;20.13;50.70;100502.51;105706;1288;21303;-64
2022/11/19 03:32:05;;;;;;;;;3.00;3.00;;;;;20.13;50.67;100500.17;105679;1297;22622;-65
2022/11/19 03:34:32;;;;;;;;;3.33;2.00;;;;;20.14;50.64;100501.52;105663;1279;19404;-65
2022/11/19 03:37:00;;;;;;;;;2.00;2.00;;;;;20.13;50.75;100505.20;105667;1297;18359;-64
2022/11/19 03:39:27;;;;;;;;;4.00;4.00;;;;;20.13;50.70;100505.40;105715;1297;18561;-66
2022/11/19 03:41:54;;;;;;;;;2.00;2.00;;;;;20.12;50.58;100503.80;105695;1295;19385;-65
2022/11/19 03:44:22;;;;;;;;;4.00;2.00;;;;;20.13;50.67;100506.66;105659;1296;18367;-66
2022/11/19 03:46:49;;;;;;;;;4.00;4.00;;;;;20.13;50.72;100505.73;105672;1297;22637;-65
2022/11/19 03:49:17;;;;;;;;;4.00;2.00;;;;;20.13;50.60;100507.58;105700;1297;19275;-66
2022/11/19 03:51:44;;;;;;;;;2.00;2.00;;;;;20.12;50.52;100507.31;105730;1297;19554;-66
2022/11/19 03:54:12;;;;;;;;;4.00;2.00;;;;;20.13;50.69;100509.24;105708;1279;19985;-65
2022/11/19 03:56:39;;;;;;;;;2.00;2.00;;;;;20.12;50.58;100510.61;105688;1271;19281;-65
2022/11/19 03:59:06;;;;;;;;;2.00;2.00;;;;;20.11;50.65;100508.72;105733;1297;18386;-66
2022/11/19 04:01:35;;;;;;;;;5.00;4.00;;;;;20.12;50.53;100510.41;105780;1287;18490;-65
2022/11/19 04:06:44;;;;;;;;;4.00;4.00;;;;;20.11;50.41;100510.52;105658;1279;18409;-64
2022/11/19 04:09:11;;;;;;;;;2.00;2.00;;;;;20.11;50.54;100513.23;105710;1279;19025;-65
2022/11/19 04:11:39;;;;;;;;;4.00;2.00;;;;;20.11;50.65;100509.84;105715;1303;19186;-64
2022/11/19 04:14:06;;;;;;;;;3.00;3.00;;;;;20.12;50.67;100518.23;105716;1281;19562;-64
2022/11/19 04:16:33;;;;;;;;;2.00;2.00;;;;;20.11;50.61;100516.74;105685;1271;21703;-65
2022/11/19 04:19:01;;;;;;;;;2.00;2.00;;;;;20.11;50.48;100521.23;105677;1280;19629;-65
2022/11/19 04:21:28;;;;;;;;;4.00;4.00;;;;;20.10;50.48;100513.00;105703;1297;18419;-65
2022/11/19 04:23:56;;;;;;;;;4.00;4.00;;;;;20.10;50.60;100517.49;105655;1279;18521;-66
2022/11/19 04:26:23;;;;;;;;;4.00;4.00;;;;;20.10;50.61;100514.09;105674;1297;20943;-65
2022/11/19 04:28:51;;;;;;;;;1.00;1.00;;;;;20.10;50.73;100512.80;105705;1295;22145;-66
2022/11/19 04:31:18;;;;;;;;;3.00;2.00;;;;;20.10;50.52;100514.29;105682;1293;18612;-67
2022/11/19 04:33:45;;;;;;;;;2.00;2.00;;;;;20.09;50.49;100515.61;105730;1300;19560;-67
2022/11/19 04:36:13;;;;;;;;;2.00;2.00;;;;;20.09;50.66;100511.84;105719;1288;19165;-66
2022/11/19 04:38:40;;;;;;;;;4.00;4.00;;;;;20.10;50.53;100513.02;105731;1297;19098;-64
2022/11/19 04:41:08;;;;;;;;;4.00;4.00;;;;;20.10;50.59;100511.41;105688;1281;22220;-65
2022/11/19 04:43:35;;;;;;;;;4.00;4.00;;;;;20.11;50.82;100506.40;105665;1271;18590;-64
2022/11/19 04:46:02;;;;;;;;;4.00;4.00;;;;;20.09;50.51;100504.94;105685;1286;20196;-64
2022/11/19 04:48:30;;;;;;;;;4.00;4.00;;;;;20.10;50.47;100502.35;105710;1297;20738;-65
2022/11/19 04:50:57;;;;;;;;;4.00;4.00;;;;;20.09;50.47;100495.92;105743;1281;19704;-66
2022/11/19 04:53:25;;;;;;;;;4.00;4.00;;;;;20.09;50.52;100498.66;105688;1288;22944;-65
2022/11/19 04:55:52;;;;;;;;;2.00;2.00;;;;;20.09;50.41;100501.50;105659;1296;19395;-65
2022/11/19 04:58:20;;;;;;;;;2.00;2.00;;;;;20.09;50.27;100498.27;105713;1297;18439;-66
2022/11/19 05:00:47;;;;;;;;;4.00;4.00;;;;;20.09;50.51;100495.04;105748;1293;18593;-65
2022/11/19 05:03:15;;;;;;;;;4.50;4.00;;;;;20.08;50.54;100495.29;105712;1300;19596;-65
2022/11/19 05:05:42;;;;;;;;;5.00;4.00;;;;;20.09;50.55;100490.61;105709;1295;19852;-64
2022/11/19 05:08:10;;;;;;;;;2.00;2.00;;;;;20.09;50.57;100491.13;105698;1300;18904;-67
2022/11/19 05:10:37;;;;;;;;;2.00;2.00;;;;;20.09;50.55;100488.85;105698;1297;20784;-65
2022/11/19 05:13:05;;;;;;;;;4.00;2.00;;;;;20.08;50.51;100490.35;105700;1295;18385;-64
2022/11/19 05:15:32;;;;;;;;;2.00;2.00;;;;;20.08;50.44;100485.33;105721;1296;20348;-64
2022/11/19 05:18:00;;;;;;;;;5.00;4.00;;;;;20.07;50.45;100484.86;105706;1297;19325;-66
2022/11/19 05:20:27;;;;;;;;;4.00;2.00;;;;;20.08;50.41;100487.66;105681;1287;19755;-65
2022/11/19 05:22:55;;;;;;;;;2.00;2.00;;;;;20.07;50.52;100483.84;105721;1297;18546;-65
2022/11/19 05:25:22;;;;;;;;;4.00;4.00;;;;;20.08;50.56;100485.36;105699;1272;19159;-66
2022/11/19 05:27:49;;;;;;;;;2.00;2.00;;;;;20.08;50.33;100488.60;105662;1296;21834;-65
2022/11/19 05:30:17;;;;;;;;;4.00;4.00;;;;;20.08;50.41;100490.23;105716;1293;18627;-64
2022/11/19 05:32:44;;;;;;;;;3.00;2.00;;;;;20.07;50.42;100488.91;105662;1284;19532;-64
2022/11/19 05:35:12;;;;;;;;;2.00;2.00;;;;;20.08;50.51;100489.52;105713;1295;22712;-65
2022/11/19 05:37:39;;;;;;;;;4.00;4.00;;;;;20.07;50.44;100489.79;105724;1279;19746;-64
2022/11/19 05:40:06;;;;;;;;;2.00;2.00;;;;;20.07;50.26;100488.66;105686;1288;19771;-65
2022/11/19 05:42:34;;;;;;;;;2.67;2.67;;;;;20.07;50.28;100492.30;105688;1288;19613;-66
2022/11/19 05:45:01;;;;;;;;;2.00;2.00;;;;;20.07;50.38;100494.81;105730;1280;18553;-65
2022/11/19 05:47:29;;;;;;;;;2.00;2.00;;;;;20.07;50.32;100488.58;105677;1287;23326;-65
2022/11/19 05:49:56;;;;;;;;;4.00;4.00;;;;;20.06;50.31;100489.19;105698;1288;18223;-66
2022/11/19 05:52:24;;;;;;;;;5.00;4.00;;;;;20.07;50.32;100494.98;105727;1271;18505;-67
2022/11/19 05:54:51;;;;;;;;;3.00;3.00;;;;;20.07;50.32;100499.05;105741;1295;19310;-66
2022/11/19 05:57:19;;;;;;;;;3.00;3.00;;;;;20.07;50.56;100505.78;105727;1272;18574;-67
2022/11/19 05:59:46;;;;;;;;;4.50;4.50;;;;;20.06;50.38;100506.40;105696;1279;18665;-66
2022/11/19 06:02:14;;;;;;;;;4.00;4.00;;;;;20.06;50.44;100507.36;105744;1272;19298;-65
2022/11/19 06:04:41;;;;;;;;;4.00;3.00;;;;;20.06;50.18;100508.61;105699;1284;18392;-66
2022/11/19 06:07:09;;;;;;;;;2.00;2.00;;;;;20.06;50.48;100509.83;105672;1286;22774;-65
2022/11/19 06:09:36;;;;;;;;;4.00;4.00;;;;;20.05;50.47;100508.52;105730;1296;19345;-64
2022/11/19 06:12:03;;;;;;;;;4.00;4.00;;;;;20.05;50.44;100510.69;105618;1274;20991;-66
2022/11/19 06:14:31;;;;;;;;;4.00;4.00;;;;;20.06;50.32;100511.53;105721;1274;19999;-66
2022/11/19 06:16:58;;;;;;;;;;;;;;;20.07;50.27;100514.11;105743;1279;19271;-66
2022/11/19 06:19:26;;;;;;;;;2.00;2.00;;;;;20.07;50.35;100514.31;105671;1288;18406;-64
2022/11/19 06:21:53;;;;;;;;;2.00;2.00;;;;;20.06;50.41;100516.02;105714;1296;18767;-66
2022/11/19 06:24:21;;;;;;;;;2.00;2.00;;;;;20.06;50.21;100516.43;105711;1298;19384;-65
2022/11/19 06:26:49;;;;;;;;;2.00;2.00;;;;;20.05;50.51;100516.88;105698;1288;18410;-65
2022/11/19 06:29:16;;;;;;;;;4.00;4.00;;;;;20.06;50.27;100521.45;105714;1296;18528;-66
2022/11/19 06:31:44;;;;;;;;;2.00;2.00;;;;;20.06;50.21;100518.16;105706;1289;19492;-66
2022/11/19 06:34:11;;;;;;;;;2.00;2.00;;;;;20.04;50.18;100524.05;105720;1285;22357;-66
2022/11/19 06:36:39;;;;;;;;;4.00;4.00;;;;;20.07;50.27;100520.30;105724;1276;18829;-65
2022/11/19 06:39:06;;;;;;;;;2.00;2.00;;;;;20.07;50.43;100518.16;105715;1295;19167;-64
2022/11/19 06:41:34;;;;;;;;;2.00;2.00;;;;;20.05;50.40;100512.52;105714;1279;18670;-65
2022/11/19 06:44:01;;;;;;;;;4.00;4.00;;;;;20.06;50.20;100513.55;105713;1288;20063;-64
2022/11/19 06:46:29;;;;;;;;;4.00;4.00;;;;;20.05;50.26;100512.60;105720;1282;19549;-65
2022/11/19 06:48:56;;;;;;;;;2.00;2.00;;;;;20.05;50.18;100517.08;105696;1271;19635;-66
2022/11/19 06:51:23;;;;;;;;;2.00;2.00;;;;;20.05;50.40;100516.19;105746;1280;20060;-65
2022/11/19 06:53:51;;;;;;;;;2.00;2.00;;;;;20.03;50.33;100514.87;105695;1297;19276;-66
2022/11/19 06:56:18;;;;;;;;;2.00;2.00;;;;;20.03;50.33;100511.80;105725;1293;20546;-65
2022/11/19 06:58:46;;;;;;;;;4.00;4.00;;;;;20.04;50.28;100513.33;105696;1271;22747;-66
2022/11/19 07:01:14;;;;;;;;;2.00;2.00;;;;;20.04;50.34;100516.46;105696;1279;20797;-66
2022/11/19 07:03:41;;;;;;;;;3.00;2.00;;;;;20.04;50.41;100517.00;105704;1300;18275;-67
2022/11/19 07:06:09;;;;;;;;;2.00;2.00;;;;;20.04;50.21;100517.21;105690;1287;22610;-65
2022/11/19 07:08:36;;;;;;;;;2.00;2.00;;;;;20.04;50.11;100519.73;105695;1271;19350;-66
2022/11/19 07:11:24;;;;;;;;;;;;;;;20.03;50.21;100520.67;105693;1281;22786;-66
2022/11/19 07:13:58;;;;;;;;;4.00;2.00;;;;;20.04;50.36;100524.66;105672;1272;18267;-66
2022/11/19 07:16:25;;;;;;;;;4.00;4.00;;;;;20.03;50.17;100525.73;105703;1281;21546;-65
2022/11/19 07:18:53;;;;;;;;;2.00;2.00;;;;;20.02;50.10;100528.73;105746;1296;19624;-65
2022/11/19 07:21:20;;;;;;;;;2.00;2.00;;;;;20.03;50.09;100532.65;105729;1297;18844;-66
2022/11/19 07:23:48;;;;;;;;;2.00;2.00;;;;;20.03;50.21;100526.15;105676;1280;22238;-66
2022/11/19 07:26:15;;;;;;;;;4.00;2.00;;;;;20.03;50.02;100525.06;105716;1297;18233;-66
2022/11/19 07:28:42;;;;;;;;;2.00;2.00;;;;;20.03;50.20;100525.27;105633;1297;21659;-65
2022/11/19 07:31:10;;;;;;;;;4.00;4.00;;;;;20.03;50.23;100531.02;105738;1295;19329;-65
2022/11/19 07:33:38;;;;;;;;;4.00;4.00;;;;;20.05;49.94;100533.04;105745;1296;18387;-65
2022/11/19 07:36:05;;;;;;;;;8.00;7.00;;;;;20.06;50.27;100538.70;105731;1272;20103;-65
2022/11/19 07:38:33;;;;;;;;;4.00;4.00;;;;;20.03;50.03;100535.57;105685;1279;20773;-66
2022/11/19 07:41:01;;;;;;;;;4.50;4.00;;;;;20.02;50.00;100534.08;105710;1279;18529;-66
2022/11/19 07:43:28;;;;;;;;;4.00;4.00;;;;;20.02;49.75;100532.99;105675;1296;18517;-65
2022/11/19 07:45:56;;;;;;;;;4.00;4.00;;;;;20.01;49.68;100532.66;105676;1297;19313;-66
2022/11/19 07:48:23;;;;;;;;;4.00;2.00;;;;;20.02;49.70;100534.97;105671;1287;20968;-64
2022/11/19 07:50:51;;;;;;;;;2.00;2.00;;;;;20.02;49.68;100534.80;105669;1295;18552;-66
2022/11/19 07:53:19;;;;;;;;;;;;;;;20.01;49.79;100534.73;105670;1295;19225;-66
2022/11/19 07:55:46;;;;;;;;;4.00;4.00;;;;;20.00;49.67;100536.58;105644;1300;18396;-65
2022/11/19 07:58:14;;;;;;;;;4.50;4.00;;;;;20.01;49.54;100536.34;105639;1295;21197;-66
2022/11/19 08:00:41;;;;;;;;;4.00;4.00;;;;;20.01;49.61;100541.03;105710;1288;19526;-66
2022/11/19 08:03:10;;;;;;;;;4.00;4.00;;;;;20.00;49.39;100538.80;105653;1279;24586;-66
2022/11/19 08:05:37;;;;;;;;;4.00;4.00;;;;;20.00;49.50;100538.05;105666;1287;22700;-66
2022/11/19 08:08:05;;;;;;;;;5.00;5.00;;;;;19.98;49.36;100541.34;105608;1297;19277;-66
2022/11/19 08:10:32;;;;;;;;;4.00;4.00;;;;;19.99;49.56;100541.04;105654;1282;18591;-66
2022/11/19 08:13:05;;;;;;;;;5.00;5.00;;;;;20.03;49.45;100538.50;105717;1297;18534;-65
2022/11/19 08:15:33;;;;;;;;;5.00;5.00;;;;;20.06;49.71;100538.70;105671;1295;21214;-65
2022/11/19 08:18:14;;;;;;;;;2.00;2.00;;;;;20.06;49.66;100538.29;105640;1279;18568;-64
2022/11/19 08:20:41;;;;;;;;;4.00;4.00;;;;;20.06;49.98;100538.70;105619;1282;22265;-64
2022/11/19 08:23:09;;;;;;;;;4.00;2.00;;;;;20.06;50.19;100535.85;105648;1272;21395;-63
2022/11/19 08:25:36;;;;;;;;;4.50;4.50;;;;;20.05;49.90;100532.69;105643;1279;18606;-63
2022/11/19 08:28:04;;;;;;;;;7.00;7.00;;;;;20.06;50.11;100539.58;105619;1287;20157;-62
2022/11/19 08:30:31;;;;;;;;;85.00;65.00;;;;;20.09;50.03;100539.98;105602;1276;20805;-65
2022/11/19 08:32:59;;;;;;;;;100.00;78.00;;;;;20.08;50.38;100542.42;105638;1279;19634;-66
2022/11/19 08:35:26;;;;;;;;;93.50;70.50;;;;;20.04;50.24;100540.75;105585;1296;20002;-65
2022/11/19 08:37:53;;;;;;;;;81.00;65.00;;;;;20.07;50.46;100538.55;105631;1291;19276;-65
2022/11/19 08:40:21;;;;;;;;;67.00;52.00;;;;;20.10;50.37;100540.45;105557;1279;22852;-66
2022/11/19 08:43:01;;;;;;;;;57.00;48.00;;;;;20.08;50.38;100542.59;105652;1294;20014;-65
2022/11/19 08:45:28;;;;;;;;;44.00;41.00;;;;;20.09;50.24;100545.39;105569;1279;19287;-66
2022/11/19 08:47:56;;;;;;;;;43.00;37.00;;;;;20.08;50.23;100543.17;105660;1289;22549;-65
2022/11/19 08:50:23;;;;;;;;;28.50;27.00;;;;;20.09;50.20;100543.44;105710;1284;18696;-65
2022/11/19 08:52:52;;;;;;;;;26.00;25.00;;;;;20.09;50.25;100543.58;105740;1297;19997;-64
2022/11/19 08:55:19;;;;;;;;;24.00;24.00;;;;;20.08;50.35;100543.71;105729;1288;21886;-66
2022/11/19 08:57:47;;;;;;;;;22.33;19.67;;;;;20.07;50.29;100543.45;105738;1279;18650;-64
2022/11/19 09:00:14;;;;;;;;;19.00;18.00;;;;;20.06;50.18;100539.65;105664;1291;19333;-66
2022/11/19 09:02:42;;;;;;;;;18.00;17.50;;;;;20.05;50.34;100539.14;105641;1296;18567;-65
2022/11/19 09:05:09;;;;;;;;;15.00;13.00;;;;;20.09;50.13;100540.75;105663;1271;18627;-66
2022/11/19 09:07:36;;;;;;;;;14.00;12.00;;;;;20.08;50.20;100540.80;105608;1279;19174;-65
2022/11/19 09:10:04;;;;;;;;;12.00;11.00;;;;;20.08;50.02;100539.56;105649;1297;22356;-66
2022/11/19 09:12:31;;;;;;;;;11.50;11.00;;;;;20.10;50.32;100540.59;105676;1297;23065;-65
2022/11/19 09:14:59;;;;;;;;;11.50;11.50;;;;;20.08;50.37;100541.36;105655;1297;19442;-64
2022/11/19 09:17:26;;;;;;;;;;;;;;;20.08;50.42;100540.96;105654;1279;18660;-66
2022/11/19 09:19:54;;;;;;;;;10.00;8.00;;;;;20.09;50.35;100537.38;105684;1288;19893;-67
2022/11/19 09:22:22;;;;;;;;;7.00;7.00;;;;;20.10;50.39;100541.13;105672;1279;19292;-68
2022/11/19 09:24:49;;;;;;;;;12.00;9.00;;;;;20.11;50.43;100537.08;105675;1297;18603;-66
2022/11/19 09:27:16;;;;;;;;;8.00;8.00;;;;;20.11;50.31;100538.89;105642;1279;18581;-65
2022/11/19 09:29:44;;;;;;;;;9.00;8.00;;;;;20.11;50.11;100535.89;105646;1279;22644;-66
2022/11/19 09:32:11;;;;;;;;;8.50;8.00;;;;;20.12;50.49;100535.14;105664;1295;18357;-66
2022/11/19 09:34:40;;;;;;;;;8.00;8.00;;;;;20.12;50.15;100533.46;105653;1302;18428;-65
2022/11/19 09:37:08;;;;;;;;;10.50;8.00;;;;;20.12;50.20;100530.41;105703;1303;19593;-66
2022/11/19 09:39:35;;;;;;;;;9.50;9.50;;;;;20.12;50.28;100530.00;105746;1294;20096;-62
2022/11/19 09:42:03;;;;;;;;;8.00;7.50;;;;;20.14;50.20;100530.61;105625;1280;18687;-65
2022/11/19 09:44:30;;;;;;;;;8.00;7.00;;;;;20.14;50.25;100529.06;105609;1297;19280;-65
2022/11/19 09:46:57;;;;;;;;;7.00;7.00;;;;;20.11;50.24;100532.90;105694;1279;20061;-63
2022/11/19 09:49:25;;;;;;;;;12.00;12.00;;;;;20.10;49.97;100529.29;105716;1288;23247;-65
2022/11/19 09:51:52;;;;;;;;;9.00;8.00;;;;;20.11;49.67;100523.79;105601;1279;22817;-64
2022/11/19 09:54:20;;;;;;;;;25.00;21.00;;;;;20.11;49.14;100517.66;105675;1280;18548;-63
2022/11/19 09:56:48;;;;;;;;;66.00;49.00;;;;;20.13;49.06;100519.89;105673;1297;20151;-60
2022/11/19 09:59:16;;;;;;;;;68.00;49.00;;;;;20.12;49.21;100515.17;105652;1279;22806;-62
2022/11/19 10:01:43;;;;;;;;;68.00;46.00;;;;;20.12;49.09;100512.92;105626;1288;20106;-64
2022/11/19 10:04:11;;;;;;;;;64.00;46.00;;;;;20.14;49.22;100515.27;105696;1271;21063;-64
2022/11/19 10:06:38;;;;;;;;;59.00;46.00;;;;;20.16;49.27;100513.58;105694;1279;19296;-65
2022/11/19 10:09:06;;;;;;;;;45.00;37.00;;;;;20.16;49.23;100512.29;105670;1279;18644;-64
2022/11/19 10:11:33;;;;;;;;;39.00;32.50;;;;;20.16;49.34;100512.97;105663;1288;19024;-64
2022/11/19 10:14:01;;;;;;;;;38.00;29.00;;;;;20.18;49.58;100515.17;105698;1281;19393;-65
2022/11/19 10:16:30;;;;;;;;;28.50;26.50;;;;;20.18;49.53;100508.23;105698;1279;18586;-62
2022/11/19 10:18:57;;;;;;;;;29.50;25.00;;;;;20.18;49.47;100509.22;105712;1272;18729;-64
2022/11/19 10:21:25;;;;;;;;;22.00;18.00;;;;;20.07;48.32;100514.95;105720;1279;22045;-63
2022/11/19 10:23:54;;;;;;;;;21.00;18.00;;;;;19.96;47.00;100514.29;105696;1279;22871;-64
2022/11/19 10:26:22;;;;;;;;;17.00;14.00;;;;;19.95;46.94;100513.66;105665;1296;18649;-64
2022/11/19 10:28:49;;;;;;;;;17.00;14.50;;;;;19.97;46.85;100514.83;105681;1289;20893;-64
2022/11/19 10:31:18;;;;;;;;;14.00;13.00;;;;;20.00;47.05;100517.07;105695;1280;20088;-64
2022/11/19 10:33:45;;;;;;;;;12.00;12.00;;;;;20.01;46.89;100513.66;105727;1288;19293;-65
2022/11/19 10:36:12;;;;;;;;;;;;;;;20.03;47.19;100514.56;105702;1289;19370;-65
2022/11/19 10:38:40;;;;;;;;;14.50;12.50;;;;;20.04;47.09;100506.30;105725;1282;18549;-66
2022/11/19 10:41:07;;;;;;;;;11.50;11.50;;;;;20.05;47.08;100506.70;105626;1281;18707;-64
2022/11/19 10:43:35;;;;;;;;;;;;;;;20.07;47.18;100501.09;105646;1279;22642;-65
2022/11/19 10:46:02;;;;;;;;;17.00;12.00;;;;;20.03;47.36;100498.35;105720;1295;18524;-66
2022/11/19 10:48:30;;;;;;;;;10.50;10.00;;;;;20.02;47.35;100496.71;105702;1279;18536;-65
2022/11/19 10:50:57;;;;;;;;;10.00;10.00;;;;;20.01;47.19;100493.02;105645;1295;19289;-65
2022/11/19 10:53:25;;;;;;;;;12.00;8.00;;;;;20.04;47.38;100489.27;105664;1295;18797;-65
2022/11/19 10:55:52;;;;;;;;;8.00;8.00;;;;;20.08;47.35;100489.71;105751;1288;19236;-63
2022/11/19 10:58:19;;;;;;;;;11.50;9.00;;;;;20.08;47.21;100485.58;105734;1297;19329;-65
2022/11/19 11:00:47;;;;;;;;;12.00;8.00;;;;;20.07;47.65;100483.46;105756;1297;18457;-66
2022/11/19 11:03:14;;;;;;;;;12.00;11.00;;;;;20.09;47.54;100484.50;105687;1289;18765;-66
2022/11/19 11:05:42;;;;;;;;;11.00;11.00;;;;;20.09;47.45;100483.34;105690;1272;20834;-62
2022/11/19 11:08:09;;;;;;;;;11.00;10.00;;;;;20.10;47.75;100480.17;105510;1287;18544;-66
2022/11/19 11:10:37;;;;;;;;;9.00;8.00;;;;;20.09;47.83;100475.92;105613;1289;20090;-63
2022/11/19 11:15:50;;;;;;;;;10.00;10.00;;;;;20.06;48.01;100470.14;105720;1297;19619;-66
2022/11/19 11:18:17;;;;;;;;;17.00;14.00;;;;;20.05;47.91;100467.87;105708;1297;18604;-64
2022/11/19 11:20:45;;;;;;;;;11.50;9.00;;;;;20.05;48.07;100459.27;105672;1279;22194;-65
2022/11/19 11:23:13;;;;;;;;;11.00;9.00;;;;;20.05;47.99;100463.55;105680;1279;18561;-66
2022/11/19 11:25:41;;;;;;;;;12.00;9.00;;;;;20.04;47.92;100462.41;105688;1287;23850;-67
2022/11/19 11:28:08;;;;;;;;;12.00;10.00;;;;;20.04;47.96;100459.80;105679;1296;19383;-65
2022/11/19 11:30:36;;;;;;;;;14.00;12.00;;;;;20.04;48.16;100461.14;105732;1294;19964;-66
2022/11/19 11:33:03;;;;;;;;;9.00;8.00;;;;;20.04;48.15;100464.78;105684;1279;19843;-66
2022/11/19 11:35:31;;;;;;;;;11.00;9.00;;;;;20.04;47.97;100463.65;105715;1297;19142;-67
2022/11/19 11:37:59;;;;;;;;;12.00;11.00;;;;;20.04;48.14;100460.34;105725;1295;18450;-66
2022/11/19 11:40:26;;;;;;;;;9.00;9.00;;;;;20.03;48.06;100462.36;105684;1296;18802;-63